sensor_id;sensor_type;location;lat;lon;timestamp;P1;durP1;ratioP1;P2;durP2;ratioP2
20203;SDS011;10261;49.010;12.034;2023-04-06T00:00:34;4.50;;;2.65;;
20203;SDS011;10261;49.010;12.034;2023-04-06T00:01:37;3.72;;;3.15;;
20203;SDS011;10261;49.010;12.034;2023-04-06T00:02:39;2.65;;;2.45;;
20203;SDS011;10261;49.010;12.034;2023-04-06T00:03:42;6.03;;;2.60;;
20203;SDS011;10261;49.010;12.034;2023-04-06T00:04:44;3.03;;;2.65;;
20203;SDS011;10261;49.010;12.034;2023-04-06T00:05:47;4.00;;;3.10;;
20203;SDS011;10261;49.010;12.034;2023-04-06T00:06:51;3.42;;;2.40;;
20203;SDS011;10261;49.010;12.034;2023-04-06T00:07:53;3.63;;;2.95;;
20203;SDS011;10261;49.010;12.034;2023-04-06T00:08:57;3.70;;;2.53;;
20203;SDS011;10261;49.010;12.034;2023-04-06T00:09:59;3.33;;;2.85;;
20203;SDS011;10261;49.010;12.034;2023-04-06T00:11:02;5.32;;;2.80;;
20203;SDS011;10261;49.010;12.034;2023-04-06T00:12:06;3.63;;;2.40;;
20203;SDS011;10261;49.010;12.034;2023-04-06T00:13:09;3.30;;;2.80;;
20203;SDS011;10261;49.010;12.034;2023-04-06T00:14:11;2.95;;;2.20;;
20203;SDS011;10261;49.010;12.034;2023-04-06T00:15:15;5.63;;;2.50;;
20203;SDS011;10261;49.010;12.034;2023-04-06T00:16:17;5.05;;;3.10;;
20203;SDS011;10261;49.010;12.034;2023-04-06T00:17:23;4.57;;;3.30;;
20203;SDS011;10261;49.010;12.034;2023-04-06T00:18:25;4.55;;;2.90;;
20203;SDS011;10261;49.010;12.034;2023-04-06T00:19:28;7.75;;;2.63;;
20203;SDS011;10261;49.010;12.034;2023-04-06T00:20:30;3.72;;;2.85;;
20203;SDS011;10261;49.010;12.034;2023-04-06T00:21:34;3.05;;;2.42;;
20203;SDS011;10261;49.010;12.034;2023-04-06T00:22:36;3.40;;;2.50;;
20203;SDS011;10261;49.010;12.034;2023-04-06T00:23:39;4.55;;;3.22;;
20203;SDS011;10261;49.010;12.034;2023-04-06T00:24:41;3.80;;;2.55;;
20203;SDS011;10261;49.010;12.034;2023-04-06T00:25:44;4.55;;;2.95;;
20203;SDS011;10261;49.010;12.034;2023-04-06T00:26:46;3.72;;;3.28;;
20203;SDS011;10261;49.010;12.034;2023-04-06T00:27:50;6.28;;;2.53;;
20203;SDS011;10261;49.010;12.034;2023-04-06T00:28:52;4.28;;;2.55;;
20203;SDS011;10261;49.010;12.034;2023-04-06T00:29:56;5.72;;;2.92;;
20203;SDS011;10261;49.010;12.034;2023-04-06T00:30:58;4.60;;;3.33;;
20203;SDS011;10261;49.010;12.034;2023-04-06T00:32:01;5.28;;;3.00;;
20203;SDS011;10261;49.010;12.034;2023-04-06T00:33:03;2.53;;;2.22;;
20203;SDS011;10261;49.010;12.034;2023-04-06T00:34:06;4.05;;;3.00;;
20203;SDS011;10261;49.010;12.034;2023-04-06T00:35:08;6.18;;;2.45;;
20203;SDS011;10261;49.010;12.034;2023-04-06T00:36:12;3.78;;;2.40;;
20203;SDS011;10261;49.010;12.034;2023-04-06T00:37:14;3.22;;;2.92;;
20203;SDS011;10261;49.010;12.034;2023-04-06T00:38:17;5.75;;;2.80;;
20203;SDS011;10261;49.010;12.034;2023-04-06T00:39:19;3.63;;;3.00;;
20203;SDS011;10261;49.010;12.034;2023-04-06T00:40:22;4.60;;;2.50;;
20203;SDS011;10261;49.010;12.034;2023-04-06T00:41:24;4.82;;;2.53;;
20203;SDS011;10261;49.010;12.034;2023-04-06T00:42:28;6.15;;;3.00;;
20203;SDS011;10261;49.010;12.034;2023-04-06T00:43:31;2.65;;;2.45;;
20203;SDS011;10261;49.010;12.034;2023-04-06T00:44:34;5.03;;;3.03;;
20203;SDS011;10261;49.010;12.034;2023-04-06T00:45:36;6.28;;;2.72;;
20203;SDS011;10261;49.010;12.034;2023-04-06T00:46:41;4.55;;;2.60;;
20203;SDS011;10261;49.010;12.034;2023-04-06T00:47:43;4.38;;;2.80;;
20203;SDS011;10261;49.010;12.034;2023-04-06T00:48:46;3.25;;;2.47;;
20203;SDS011;10261;49.010;12.034;2023-04-06T00:49:48;3.95;;;2.83;;
20203;SDS011;10261;49.010;12.034;2023-04-06T00:50:51;3.10;;;2.10;;
20203;SDS011;10261;49.010;12.034;2023-04-06T00:51:53;2.90;;;2.15;;
20203;SDS011;10261;49.010;12.034;2023-04-06T00:52:56;3.60;;;2.70;;
20203;SDS011;10261;49.010;12.034;2023-04-06T00:53:59;4.30;;;2.63;;
20203;SDS011;10261;49.010;12.034;2023-04-06T00:55:02;2.58;;;2.35;;
20203;SDS011;10261;49.010;12.034;2023-04-06T00:56:06;2.90;;;2.53;;
20203;SDS011;10261;49.010;12.034;2023-04-06T00:57:11;2.70;;;2.40;;
20203;SDS011;10261;49.010;12.034;2023-04-06T00:58:14;4.72;;;2.80;;
20203;SDS011;10261;49.010;12.034;2023-04-06T00:59:17;4.28;;;2.60;;
20203;SDS011;10261;49.010;12.034;2023-04-06T01:00:21;3.53;;;2.58;;
20203;SDS011;10261;49.010;12.034;2023-04-06T01:01:23;6.00;;;2.20;;
20203;SDS011;10261;49.010;12.034;2023-04-06T01:02:26;4.53;;;3.05;;
20203;SDS011;10261;49.010;12.034;2023-04-06T01:03:29;3.20;;;2.20;;
20203;SDS011;10261;49.010;12.034;2023-04-06T01:04:32;3.33;;;2.50;;
20203;SDS011;10261;49.010;12.034;2023-04-06T01:05:34;5.63;;;2.90;;
20203;SDS011;10261;49.010;12.034;2023-04-06T01:06:41;2.35;;;2.15;;
20203;SDS011;10261;49.010;12.034;2023-04-06T01:07:43;5.53;;;2.70;;
20203;SDS011;10261;49.010;12.034;2023-04-06T01:08:46;3.22;;;2.47;;
20203;SDS011;10261;49.010;12.034;2023-04-06T01:09:48;3.65;;;2.95;;
20203;SDS011;10261;49.010;12.034;2023-04-06T01:10:51;4.07;;;2.88;;
20203;SDS011;10261;49.010;12.034;2023-04-06T01:11:53;3.33;;;2.60;;
20203;SDS011;10261;49.010;12.034;2023-04-06T01:12:57;4.07;;;2.60;;
20203;SDS011;10261;49.010;12.034;2023-04-06T01:13:59;5.38;;;3.03;;
20203;SDS011;10261;49.010;12.034;2023-04-06T01:15:04;4.85;;;3.25;;
20203;SDS011;10261;49.010;12.034;2023-04-06T01:16:07;3.65;;;3.22;;
20203;SDS011;10261;49.010;12.034;2023-04-06T01:17:11;8.73;;;2.72;;
20203;SDS011;10261;49.010;12.034;2023-04-06T01:18:13;3.40;;;2.90;;
20203;SDS011;10261;49.010;12.034;2023-04-06T01:19:16;4.10;;;2.88;;
20203;SDS011;10261;49.010;12.034;2023-04-06T01:20:18;8.73;;;3.45;;
20203;SDS011;10261;49.010;12.034;2023-04-06T01:21:21;3.47;;;3.17;;
20203;SDS011;10261;49.010;12.034;2023-04-06T01:22:25;3.58;;;2.75;;
20203;SDS011;10261;49.010;12.034;2023-04-06T01:23:28;7.65;;;2.92;;
20203;SDS011;10261;49.010;12.034;2023-04-06T01:24:30;5.63;;;3.28;;
20203;SDS011;10261;49.010;12.034;2023-04-06T01:25:33;5.05;;;2.97;;
20203;SDS011;10261;49.010;12.034;2023-04-06T01:26:35;5.22;;;3.13;;
20203;SDS011;10261;49.010;12.034;2023-04-06T01:27:39;2.75;;;2.47;;
20203;SDS011;10261;49.010;12.034;2023-04-06T01:28:41;3.47;;;2.50;;
20203;SDS011;10261;49.010;12.034;2023-04-06T01:29:45;5.57;;;2.70;;
20203;SDS011;10261;49.010;12.034;2023-04-06T01:30:47;4.10;;;2.90;;
20203;SDS011;10261;49.010;12.034;2023-04-06T01:31:50;6.05;;;3.10;;
20203;SDS011;10261;49.010;12.034;2023-04-06T01:32:52;4.00;;;2.72;;
20203;SDS011;10261;49.010;12.034;2023-04-06T01:33:56;7.57;;;3.40;;
20203;SDS011;10261;49.010;12.034;2023-04-06T01:34:58;6.68;;;3.15;;
20203;SDS011;10261;49.010;12.034;2023-04-06T01:36:01;4.50;;;2.53;;
20203;SDS011;10261;49.010;12.034;2023-04-06T01:37:04;3.90;;;2.80;;
20203;SDS011;10261;49.010;12.034;2023-04-06T01:38:08;3.25;;;2.30;;
20203;SDS011;10261;49.010;12.034;2023-04-06T01:39:10;4.63;;;2.63;;
20203;SDS011;10261;49.010;12.034;2023-04-06T01:40:13;3.85;;;3.03;;
20203;SDS011;10261;49.010;12.034;2023-04-06T01:41:16;4.45;;;2.75;;
20203;SDS011;10261;49.010;12.034;2023-04-06T01:42:19;4.60;;;2.38;;
20203;SDS011;10261;49.010;12.034;2023-04-06T01:43:21;3.95;;;2.28;;
20203;SDS011;10261;49.010;12.034;2023-04-06T01:44:24;4.95;;;2.55;;
20203;SDS011;10261;49.010;12.034;2023-04-06T01:45:26;5.05;;;2.90;;
20203;SDS011;10261;49.010;12.034;2023-04-06T01:46:29;4.25;;;2.35;;
20203;SDS011;10261;49.010;12.034;2023-04-06T01:47:32;4.28;;;2.65;;
20203;SDS011;10261;49.010;12.034;2023-04-06T01:48:35;4.90;;;3.20;;
20203;SDS011;10261;49.010;12.034;2023-04-06T01:49:37;2.53;;;2.30;;
20203;SDS011;10261;49.010;12.034;2023-04-06T01:50:40;3.60;;;2.28;;
20203;SDS011;10261;49.010;12.034;2023-04-06T01:51:42;4.82;;;3.15;;
20203;SDS011;10261;49.010;12.034;2023-04-06T01:52:45;2.70;;;2.50;;
20203;SDS011;10261;49.010;12.034;2023-04-06T01:53:49;4.15;;;2.85;;
20203;SDS011;10261;49.010;12.034;2023-04-06T01:54:52;4.50;;;2.90;;
20203;SDS011;10261;49.010;12.034;2023-04-06T01:55:54;4.07;;;3.25;;
20203;SDS011;10261;49.010;12.034;2023-04-06T01:56:57;4.35;;;2.72;;
20203;SDS011;10261;49.010;12.034;2023-04-06T01:57:59;4.85;;;2.70;;
20203;SDS011;10261;49.010;12.034;2023-04-06T01:59:02;2.38;;;2.17;;
20203;SDS011;10261;49.010;12.034;2023-04-06T02:00:05;4.10;;;2.30;;
20203;SDS011;10261;49.010;12.034;2023-04-06T02:01:09;5.30;;;2.85;;
20203;SDS011;10261;49.010;12.034;2023-04-06T02:02:11;3.80;;;2.40;;
20203;SDS011;10261;49.010;12.034;2023-04-06T02:03:14;2.55;;;2.35;;
20203;SDS011;10261;49.010;12.034;2023-04-06T02:04:17;4.07;;;2.95;;
20203;SDS011;10261;49.010;12.034;2023-04-06T02:05:20;2.55;;;2.35;;
20203;SDS011;10261;49.010;12.034;2023-04-06T02:06:22;2.72;;;1.98;;
20203;SDS011;10261;49.010;12.034;2023-04-06T02:07:25;3.00;;;2.53;;
20203;SDS011;10261;49.010;12.034;2023-04-06T02:08:27;3.42;;;2.88;;
20203;SDS011;10261;49.010;12.034;2023-04-06T02:09:31;5.25;;;2.75;;
20203;SDS011;10261;49.010;12.034;2023-04-06T02:10:33;2.42;;;2.22;;
20203;SDS011;10261;49.010;12.034;2023-04-06T02:11:37;3.08;;;2.10;;
20203;SDS011;10261;49.010;12.034;2023-04-06T02:12:39;3.30;;;2.95;;
20203;SDS011;10261;49.010;12.034;2023-04-06T02:13:42;6.50;;;2.97;;
20203;SDS011;10261;49.010;12.034;2023-04-06T02:14:44;5.72;;;3.10;;
20203;SDS011;10261;49.010;12.034;2023-04-06T02:15:47;3.15;;;2.60;;
20203;SDS011;10261;49.010;12.034;2023-04-06T02:16:49;3.95;;;3.05;;
20203;SDS011;10261;49.010;12.034;2023-04-06T02:17:52;3.45;;;2.67;;
20203;SDS011;10261;49.010;12.034;2023-04-06T02:18:55;2.80;;;2.42;;
20203;SDS011;10261;49.010;12.034;2023-04-06T02:19:58;7.30;;;3.38;;
20203;SDS011;10261;49.010;12.034;2023-04-06T02:21:00;3.70;;;2.97;;
20203;SDS011;10261;49.010;12.034;2023-04-06T02:22:03;4.40;;;3.22;;
20203;SDS011;10261;49.010;12.034;2023-04-06T02:23:05;4.57;;;2.45;;
20203;SDS011;10261;49.010;12.034;2023-04-06T02:24:08;4.30;;;3.15;;
20203;SDS011;10261;49.010;12.034;2023-04-06T02:25:12;5.60;;;3.20;;
20203;SDS011;10261;49.010;12.034;2023-04-06T02:26:15;4.60;;;2.95;;
20203;SDS011;10261;49.010;12.034;2023-04-06T02:27:17;4.85;;;2.60;;
20203;SDS011;10261;49.010;12.034;2023-04-06T02:28:20;4.40;;;2.70;;
20203;SDS011;10261;49.010;12.034;2023-04-06T02:29:22;4.55;;;2.40;;
20203;SDS011;10261;49.010;12.034;2023-04-06T02:30:25;4.25;;;3.10;;
20203;SDS011;10261;49.010;12.034;2023-04-06T02:31:27;7.10;;;3.20;;
20203;SDS011;10261;49.010;12.034;2023-04-06T02:32:30;2.70;;;2.40;;
20203;SDS011;10261;49.010;12.034;2023-04-06T02:33:33;7.22;;;2.10;;
20203;SDS011;10261;49.010;12.034;2023-04-06T02:34:36;3.42;;;2.53;;
20203;SDS011;10261;49.010;12.034;2023-04-06T02:35:38;4.53;;;2.70;;
20203;SDS011;10261;49.010;12.034;2023-04-06T02:36:41;2.83;;;2.55;;
20203;SDS011;10261;49.010;12.034;2023-04-06T02:37:43;3.00;;;2.50;;
20203;SDS011;10261;49.010;12.034;2023-04-06T02:38:46;3.65;;;2.30;;
20203;SDS011;10261;49.010;12.034;2023-04-06T02:39:48;5.47;;;2.58;;
20203;SDS011;10261;49.010;12.034;2023-04-06T02:40:53;3.00;;;2.42;;
20203;SDS011;10261;49.010;12.034;2023-04-06T02:41:55;3.67;;;2.20;;
20203;SDS011;10261;49.010;12.034;2023-04-06T02:42:59;3.03;;;2.22;;
20203;SDS011;10261;49.010;12.034;2023-04-06T02:44:01;6.38;;;2.55;;
20203;SDS011;10261;49.010;12.034;2023-04-06T02:45:04;5.50;;;2.95;;
20203;SDS011;10261;49.010;12.034;2023-04-06T02:46:07;4.15;;;3.00;;
20203;SDS011;10261;49.010;12.034;2023-04-06T02:47:10;2.95;;;2.65;;
20203;SDS011;10261;49.010;12.034;2023-04-06T02:48:13;6.50;;;2.83;;
20203;SDS011;10261;49.010;12.034;2023-04-06T02:49:16;4.35;;;2.72;;
20203;SDS011;10261;49.010;12.034;2023-04-06T02:50:18;3.65;;;3.00;;
20203;SDS011;10261;49.010;12.034;2023-04-06T02:51:21;5.55;;;2.50;;
20203;SDS011;10261;49.010;12.034;2023-04-06T02:52:23;3.42;;;2.65;;
20203;SDS011;10261;49.010;12.034;2023-04-06T02:53:26;8.32;;;3.20;;
20203;SDS011;10261;49.010;12.034;2023-04-06T02:54:29;3.33;;;2.70;;
20203;SDS011;10261;49.010;12.034;2023-04-06T02:55:32;3.15;;;2.58;;
20203;SDS011;10261;49.010;12.034;2023-04-06T02:56:35;3.53;;;2.90;;
20203;SDS011;10261;49.010;12.034;2023-04-06T02:57:38;3.25;;;2.83;;
20203;SDS011;10261;49.010;12.034;2023-04-06T02:58:40;3.67;;;2.55;;
20203;SDS011;10261;49.010;12.034;2023-04-06T02:59:43;4.13;;;2.65;;
20203;SDS011;10261;49.010;12.034;2023-04-06T03:00:46;5.40;;;3.00;;
20203;SDS011;10261;49.010;12.034;2023-04-06T03:01:49;3.05;;;2.40;;
20203;SDS011;10261;49.010;12.034;2023-04-06T03:02:51;4.95;;;2.72;;
20203;SDS011;10261;49.010;12.034;2023-04-06T03:03:54;2.50;;;2.30;;
20203;SDS011;10261;49.010;12.034;2023-04-06T03:04:56;2.58;;;2.38;;
20203;SDS011;10261;49.010;12.034;2023-04-06T03:05:59;2.63;;;2.40;;
20203;SDS011;10261;49.010;12.034;2023-04-06T03:07:01;4.05;;;2.38;;
20203;SDS011;10261;49.010;12.034;2023-04-06T03:08:04;8.32;;;2.50;;
20203;SDS011;10261;49.010;12.034;2023-04-06T03:09:06;4.68;;;2.97;;
20203;SDS011;10261;49.010;12.034;2023-04-06T03:10:10;3.20;;;2.83;;
20203;SDS011;10261;49.010;12.034;2023-04-06T03:11:13;3.08;;;2.65;;
20203;SDS011;10261;49.010;12.034;2023-04-06T03:12:17;2.45;;;2.25;;
20203;SDS011;10261;49.010;12.034;2023-04-06T03:13:20;2.97;;;2.55;;
20203;SDS011;10261;49.010;12.034;2023-04-06T03:14:23;6.50;;;3.20;;
20203;SDS011;10261;49.010;12.034;2023-04-06T03:15:25;5.80;;;3.53;;
20203;SDS011;10261;49.010;12.034;2023-04-06T03:16:29;5.90;;;4.57;;
20203;SDS011;10261;49.010;12.034;2023-04-06T03:17:31;9.10;;;5.15;;
20203;SDS011;10261;49.010;12.034;2023-04-06T03:18:34;12.35;;;5.53;;
20203;SDS011;10261;49.010;12.034;2023-04-06T03:19:36;9.95;;;5.88;;
20203;SDS011;10261;49.010;12.034;2023-04-06T03:20:39;29.90;;;6.30;;
20203;SDS011;10261;49.010;12.034;2023-04-06T03:21:41;8.77;;;6.07;;
20203;SDS011;10261;49.010;12.034;2023-04-06T03:22:44;9.07;;;5.50;;
20203;SDS011;10261;49.010;12.034;2023-04-06T03:23:46;10.98;;;6.28;;
20203;SDS011;10261;49.010;12.034;2023-04-06T03:24:52;10.43;;;6.00;;
20203;SDS011;10261;49.010;12.034;2023-04-06T03:25:54;7.22;;;4.47;;
20203;SDS011;10261;49.010;12.034;2023-04-06T03:26:57;3.80;;;3.40;;
20203;SDS011;10261;49.010;12.034;2023-04-06T03:28:00;6.50;;;3.65;;
20203;SDS011;10261;49.010;12.034;2023-04-06T03:29:03;7.95;;;3.80;;
20203;SDS011;10261;49.010;12.034;2023-04-06T03:30:06;7.05;;;4.85;;
20203;SDS011;10261;49.010;12.034;2023-04-06T03:31:10;11.65;;;6.20;;
20203;SDS011;10261;49.010;12.034;2023-04-06T03:32:12;10.60;;;6.40;;
20203;SDS011;10261;49.010;12.034;2023-04-06T03:33:15;9.55;;;6.30;;
20203;SDS011;10261;49.010;12.034;2023-04-06T03:34:17;10.50;;;5.80;;
20203;SDS011;10261;49.010;12.034;2023-04-06T03:35:21;10.52;;;5.90;;
20203;SDS011;10261;49.010;12.034;2023-04-06T03:36:23;7.85;;;4.72;;
20203;SDS011;10261;49.010;12.034;2023-04-06T03:37:26;7.50;;;4.90;;
20203;SDS011;10261;49.010;12.034;2023-04-06T03:38:28;6.38;;;4.97;;
20203;SDS011;10261;49.010;12.034;2023-04-06T03:39:31;7.00;;;3.80;;
20203;SDS011;10261;49.010;12.034;2023-04-06T03:40:33;4.68;;;3.80;;
20203;SDS011;10261;49.010;12.034;2023-04-06T03:41:36;4.88;;;3.42;;
20203;SDS011;10261;49.010;12.034;2023-04-06T03:42:38;16.08;;;3.85;;
20203;SDS011;10261;49.010;12.034;2023-04-06T03:43:43;3.72;;;2.83;;
20203;SDS011;10261;49.010;12.034;2023-04-06T03:44:45;4.45;;;3.45;;
20203;SDS011;10261;49.010;12.034;2023-04-06T03:45:49;6.82;;;3.22;;
20203;SDS011;10261;49.010;12.034;2023-04-06T03:46:51;4.88;;;3.45;;
20203;SDS011;10261;49.010;12.034;2023-04-06T03:47:54;4.07;;;3.30;;
20203;SDS011;10261;49.010;12.034;2023-04-06T03:48:56;5.03;;;3.85;;
20203;SDS011;10261;49.010;12.034;2023-04-06T03:49:59;6.55;;;4.00;;
20203;SDS011;10261;49.010;12.034;2023-04-06T03:51:01;6.72;;;4.43;;
20203;SDS011;10261;49.010;12.034;2023-04-06T03:52:05;6.68;;;4.30;;
20203;SDS011;10261;49.010;12.034;2023-04-06T03:53:07;5.57;;;4.05;;
20203;SDS011;10261;49.010;12.034;2023-04-06T03:54:10;7.75;;;4.38;;
20203;SDS011;10261;49.010;12.034;2023-04-06T03:55:12;7.18;;;4.05;;
20203;SDS011;10261;49.010;12.034;2023-04-06T03:56:15;7.40;;;4.35;;
20203;SDS011;10261;49.010;12.034;2023-04-06T03:57:17;10.48;;;4.07;;
20203;SDS011;10261;49.010;12.034;2023-04-06T03:58:20;8.57;;;5.75;;
20203;SDS011;10261;49.010;12.034;2023-04-06T03:59:24;8.68;;;5.20;;
20203;SDS011;10261;49.010;12.034;2023-04-06T04:00:27;8.68;;;5.00;;
20203;SDS011;10261;49.010;12.034;2023-04-06T04:01:29;5.65;;;3.63;;
20203;SDS011;10261;49.010;12.034;2023-04-06T04:02:32;12.70;;;5.88;;
20203;SDS011;10261;49.010;12.034;2023-04-06T04:03:35;11.25;;;6.07;;
20203;SDS011;10261;49.010;12.034;2023-04-06T04:04:38;14.82;;;7.95;;
20203;SDS011;10261;49.010;12.034;2023-04-06T04:05:40;25.85;;;11.52;;
20203;SDS011;10261;49.010;12.034;2023-04-06T04:06:44;26.92;;;13.38;;
20203;SDS011;10261;49.010;12.034;2023-04-06T04:07:46;27.50;;;15.10;;
20203;SDS011;10261;49.010;12.034;2023-04-06T04:08:49;29.90;;;14.77;;
20203;SDS011;10261;49.010;12.034;2023-04-06T04:09:51;43.05;;;19.45;;
20203;SDS011;10261;49.010;12.034;2023-04-06T04:10:54;32.00;;;15.32;;
20203;SDS011;10261;49.010;12.034;2023-04-06T04:11:56;36.60;;;15.57;;
20203;SDS011;10261;49.010;12.034;2023-04-06T04:12:59;24.88;;;12.80;;
20203;SDS011;10261;49.010;12.034;2023-04-06T04:14:01;35.90;;;15.55;;
20203;SDS011;10261;49.010;12.034;2023-04-06T04:15:06;29.27;;;13.88;;
20203;SDS011;10261;49.010;12.034;2023-04-06T04:16:09;17.10;;;9.45;;
20203;SDS011;10261;49.010;12.034;2023-04-06T04:17:12;41.63;;;17.75;;
20203;SDS011;10261;49.010;12.034;2023-04-06T04:18:14;40.45;;;17.80;;
20203;SDS011;10261;49.010;12.034;2023-04-06T04:19:17;25.50;;;11.93;;
20203;SDS011;10261;49.010;12.034;2023-04-06T04:20:19;27.40;;;13.00;;
20203;SDS011;10261;49.010;12.034;2023-04-06T04:21:23;18.20;;;9.07;;
20203;SDS011;10261;49.010;12.034;2023-04-06T04:22:27;16.55;;;8.25;;
20203;SDS011;10261;49.010;12.034;2023-04-06T04:23:29;18.35;;;9.20;;
20203;SDS011;10261;49.010;12.034;2023-04-06T04:24:32;11.43;;;6.28;;
20203;SDS011;10261;49.010;12.034;2023-04-06T04:25:34;12.75;;;6.70;;
20203;SDS011;10261;49.010;12.034;2023-04-06T04:26:37;9.38;;;5.40;;
20203;SDS011;10261;49.010;12.034;2023-04-06T04:27:40;11.55;;;5.95;;
20203;SDS011;10261;49.010;12.034;2023-04-06T04:28:43;12.95;;;5.90;;
20203;SDS011;10261;49.010;12.034;2023-04-06T04:29:45;12.32;;;6.13;;
20203;SDS011;10261;49.010;12.034;2023-04-06T04:30:50;12.55;;;5.95;;
20203;SDS011;10261;49.010;12.034;2023-04-06T04:31:52;15.45;;;6.22;;
20203;SDS011;10261;49.010;12.034;2023-04-06T04:32:55;16.05;;;6.75;;
20203;SDS011;10261;49.010;12.034;2023-04-06T04:33:57;12.43;;;6.15;;
20203;SDS011;10261;49.010;12.034;2023-04-06T04:35:00;9.73;;;5.10;;
20203;SDS011;10261;49.010;12.034;2023-04-06T04:36:03;11.48;;;5.20;;
20203;SDS011;10261;49.010;12.034;2023-04-06T04:37:06;7.80;;;4.65;;
20203;SDS011;10261;49.010;12.034;2023-04-06T04:38:08;7.45;;;3.65;;
20203;SDS011;10261;49.010;12.034;2023-04-06T04:39:11;7.35;;;4.60;;
20203;SDS011;10261;49.010;12.034;2023-04-06T04:40:13;11.95;;;5.35;;
20203;SDS011;10261;49.010;12.034;2023-04-06T04:41:17;10.07;;;4.45;;
20203;SDS011;10261;49.010;12.034;2023-04-06T04:42:20;9.57;;;4.88;;
20203;SDS011;10261;49.010;12.034;2023-04-06T04:43:23;6.00;;;4.00;;
20203;SDS011;10261;49.010;12.034;2023-04-06T04:44:25;10.57;;;5.78;;
20203;SDS011;10261;49.010;12.034;2023-04-06T04:45:28;8.55;;;4.63;;
20203;SDS011;10261;49.010;12.034;2023-04-06T04:46:31;6.78;;;4.55;;
20203;SDS011;10261;49.010;12.034;2023-04-06T04:47:34;6.50;;;5.18;;
20203;SDS011;10261;49.010;12.034;2023-04-06T04:48:36;7.15;;;4.53;;
20203;SDS011;10261;49.010;12.034;2023-04-06T04:49:41;6.10;;;4.00;;
20203;SDS011;10261;49.010;12.034;2023-04-06T04:50:43;8.65;;;5.13;;
20203;SDS011;10261;49.010;12.034;2023-04-06T04:51:46;6.20;;;4.90;;
20203;SDS011;10261;49.010;12.034;2023-04-06T04:52:48;12.90;;;5.63;;
20203;SDS011;10261;49.010;12.034;2023-04-06T04:53:51;13.85;;;7.60;;
20203;SDS011;10261;49.010;12.034;2023-04-06T04:54:54;13.63;;;7.95;;
20203;SDS011;10261;49.010;12.034;2023-04-06T04:55:56;18.60;;;7.10;;
20203;SDS011;10261;49.010;12.034;2023-04-06T04:56:59;11.27;;;7.13;;
20203;SDS011;10261;49.010;12.034;2023-04-06T04:58:01;11.32;;;5.93;;
20203;SDS011;10261;49.010;12.034;2023-04-06T04:59:04;9.35;;;6.07;;
20203;SDS011;10261;49.010;12.034;2023-04-06T05:00:07;8.15;;;5.75;;
20203;SDS011;10261;49.010;12.034;2023-04-06T05:01:11;12.98;;;5.47;;
20203;SDS011;10261;49.010;12.034;2023-04-06T05:02:14;10.50;;;5.70;;
20203;SDS011;10261;49.010;12.034;2023-04-06T05:03:18;7.53;;;4.78;;
20203;SDS011;10261;49.010;12.034;2023-04-06T05:04:23;8.90;;;4.85;;
20203;SDS011;10261;49.010;12.034;2023-04-06T05:05:26;5.32;;;4.15;;
20203;SDS011;10261;49.010;12.034;2023-04-06T05:06:28;4.55;;;4.10;;
20203;SDS011;10261;49.010;12.034;2023-04-06T05:07:32;7.85;;;4.20;;
20203;SDS011;10261;49.010;12.034;2023-04-06T05:08:35;4.20;;;3.15;;
20203;SDS011;10261;49.010;12.034;2023-04-06T05:09:38;3.67;;;3.20;;
20203;SDS011;10261;49.010;12.034;2023-04-06T05:10:40;4.82;;;4.07;;
20203;SDS011;10261;49.010;12.034;2023-04-06T05:11:44;5.32;;;4.30;;
20203;SDS011;10261;49.010;12.034;2023-04-06T05:12:46;6.35;;;4.28;;
20203;SDS011;10261;49.010;12.034;2023-04-06T05:13:49;4.80;;;3.38;;
20203;SDS011;10261;49.010;12.034;2023-04-06T05:14:51;6.20;;;4.10;;
20203;SDS011;10261;49.010;12.034;2023-04-06T05:15:54;7.22;;;4.18;;
20203;SDS011;10261;49.010;12.034;2023-04-06T05:16:56;7.88;;;4.82;;
20203;SDS011;10261;49.010;12.034;2023-04-06T05:18:01;5.00;;;4.07;;
20203;SDS011;10261;49.010;12.034;2023-04-06T05:19:03;9.40;;;3.80;;
20203;SDS011;10261;49.010;12.034;2023-04-06T05:20:07;5.95;;;4.00;;
20203;SDS011;10261;49.010;12.034;2023-04-06T05:21:09;5.18;;;3.70;;
20203;SDS011;10261;49.010;12.034;2023-04-06T05:22:14;10.27;;;3.95;;
20203;SDS011;10261;49.010;12.034;2023-04-06T05:23:18;3.75;;;2.83;;
20203;SDS011;10261;49.010;12.034;2023-04-06T05:24:21;5.07;;;3.40;;
20203;SDS011;10261;49.010;12.034;2023-04-06T05:25:24;5.00;;;3.35;;
20203;SDS011;10261;49.010;12.034;2023-04-06T05:26:27;4.88;;;3.10;;
20203;SDS011;10261;49.010;12.034;2023-04-06T05:27:29;5.03;;;3.03;;
20203;SDS011;10261;49.010;12.034;2023-04-06T05:28:33;7.35;;;3.38;;
20203;SDS011;10261;49.010;12.034;2023-04-06T05:29:35;4.35;;;3.20;;
20203;SDS011;10261;49.010;12.034;2023-04-06T05:30:38;6.18;;;3.38;;
20203;SDS011;10261;49.010;12.034;2023-04-06T05:31:40;3.90;;;3.50;;
20203;SDS011;10261;49.010;12.034;2023-04-06T05:32:43;4.50;;;2.80;;
20203;SDS011;10261;49.010;12.034;2023-04-06T05:33:47;7.13;;;3.50;;
20203;SDS011;10261;49.010;12.034;2023-04-06T05:34:51;3.63;;;3.22;;
20203;SDS011;10261;49.010;12.034;2023-04-06T05:35:54;7.05;;;3.75;;
20203;SDS011;10261;49.010;12.034;2023-04-06T05:36:56;3.25;;;2.95;;
20203;SDS011;10261;49.010;12.034;2023-04-06T05:37:59;3.85;;;2.92;;
20203;SDS011;10261;49.010;12.034;2023-04-06T05:39:01;5.82;;;2.97;;
20203;SDS011;10261;49.010;12.034;2023-04-06T05:40:05;6.97;;;4.07;;
20203;SDS011;10261;49.010;12.034;2023-04-06T05:41:08;6.28;;;3.72;;
20203;SDS011;10261;49.010;12.034;2023-04-06T05:42:11;6.82;;;5.18;;
20203;SDS011;10261;49.010;12.034;2023-04-06T05:43:13;11.77;;;5.75;;
20203;SDS011;10261;49.010;12.034;2023-04-06T05:44:16;8.95;;;5.10;;
20203;SDS011;10261;49.010;12.034;2023-04-06T05:45:18;6.43;;;5.22;;
20203;SDS011;10261;49.010;12.034;2023-04-06T05:46:21;6.55;;;5.32;;
20203;SDS011;10261;49.010;12.034;2023-04-06T05:47:24;7.57;;;5.93;;
20203;SDS011;10261;49.010;12.034;2023-04-06T05:48:27;5.78;;;4.55;;
20203;SDS011;10261;49.010;12.034;2023-04-06T05:49:30;6.63;;;4.35;;
20203;SDS011;10261;49.010;12.034;2023-04-06T05:50:33;7.35;;;3.30;;
20203;SDS011;10261;49.010;12.034;2023-04-06T05:51:36;4.10;;;3.67;;
20203;SDS011;10261;49.010;12.034;2023-04-06T05:52:39;4.68;;;4.03;;
20203;SDS011;10261;49.010;12.034;2023-04-06T05:53:44;5.55;;;4.55;;
20203;SDS011;10261;49.010;12.034;2023-04-06T05:54:48;8.55;;;5.22;;
20203;SDS011;10261;49.010;12.034;2023-04-06T05:55:50;6.45;;;4.78;;
20203;SDS011;10261;49.010;12.034;2023-04-06T05:56:53;4.68;;;3.88;;
20203;SDS011;10261;49.010;12.034;2023-04-06T05:57:55;3.78;;;3.47;;
20203;SDS011;10261;49.010;12.034;2023-04-06T05:58:58;5.72;;;3.65;;
20203;SDS011;10261;49.010;12.034;2023-04-06T06:00:01;11.73;;;3.85;;
20203;SDS011;10261;49.010;12.034;2023-04-06T06:01:05;8.00;;;3.95;;
20203;SDS011;10261;49.010;12.034;2023-04-06T06:02:08;7.55;;;3.75;;
20203;SDS011;10261;49.010;12.034;2023-04-06T06:03:10;3.92;;;3.50;;
20203;SDS011;10261;49.010;12.034;2023-04-06T06:04:13;7.10;;;3.78;;
20203;SDS011;10261;49.010;12.034;2023-04-06T06:05:16;4.15;;;3.42;;
20203;SDS011;10261;49.010;12.034;2023-04-06T06:06:20;4.05;;;3.67;;
20203;SDS011;10261;49.010;12.034;2023-04-06T06:07:22;5.40;;;3.60;;
20203;SDS011;10261;49.010;12.034;2023-04-06T06:08:26;3.50;;;2.97;;
20203;SDS011;10261;49.010;12.034;2023-04-06T06:09:28;6.30;;;4.20;;
20203;SDS011;10261;49.010;12.034;2023-04-06T06:10:31;5.05;;;4.40;;
20203;SDS011;10261;49.010;12.034;2023-04-06T06:11:33;6.45;;;3.83;;